Trans Exeter — 9HA2572 — position and weather

sailwx.info

Track history (hours):
 
Tides and Currents Weather Stations Pressure Air Temp Water Temp Dewpoint Dewpoint Depression Visibility Wind Speed Wind Dir Waves Ship Positions

Trans Exeter

Last reported at 2015-Aug-28 12:15 UTC. Time now 2015-Aug-29 00:25 UTC.
Position N 41°18' E 002°11'.

Length 118 m; draft 7.4 m.

Type: Ship (hazmat cat C). MMSI: 248908000.

Date/timePositionNaut miles runAvg speedWind from/ knotsBaromVisibWave heightAir tempDewpointWater temp
2015-Aug-28 12:15N 41°18' E 002°11'3 3.9
2015-Aug-28 11:24N 41°15' E 002°11'1113.5
2015-Aug-28 10:33N 41°07' E 002°01'1514.7
2015-Aug-28 09:33N 41°00' E 001°43'1612.5
2015-Aug-28 08:17N 40°58' E 001°22'10 0.5
2015-Aug-27 12:20N 41°05' E 001°13'7 8.3
2015-Aug-27 11:33N 40°59' E 001°11'1514.5
2015-Aug-27 10:33N 40°45' E 001°08'1414.4
2015-Aug-27 09:33N 40°31' E 001°05'1514.5
2015-Aug-27 08:33N 40°16' E 001°01'1414.5
2015-Aug-27 07:33N 40°02' E 000°58'1514.7
2015-Aug-27 06:32N 39°47' E 000°53'11914.5
2015-Aug-26 22:20N 37°59' W 000°09'1214.6
2015-Aug-26 21:32N 37°49' W 000°17'1414.2
2015-Aug-26 20:33N 37°38' W 000°27'1413.7
2015-Aug-26 19:31N 37°27' W 000°39'1313.6
2015-Aug-26 18:33N 37°19' W 000°52'  
2015-Aug-21 19:32N 36°47' W 007°47'1715.4
2015-Aug-21 18:27N 36°42' W 008°07'1515.0
2015-Aug-21 17:26N 36°37' W 008°25'7111.7
2015-Aug-21 11:21N 37°08' W 009°44'1215.1
2015-Aug-21 10:33N 37°20' W 009°48'1515.3
2015-Aug-21 09:33N 37°35' W 009°52'1515.0
2015-Aug-21 08:33N 37°49' W 009°57'1515.2
2015-Aug-21 07:34N 38°04' W 010°01'1515.0
2015-Aug-21 06:33N 38°19' W 010°06'1615.9
2015-Aug-21 05:33N 38°34' W 010°10'1615.5
2015-Aug-21 04:33N 38°50' W 010°11'1514.6
2015-Aug-21 03:33N 39°04' W 010°12'1514.9
2015-Aug-21 02:33N 39°19' W 010°12'1515.2
2015-Aug-21 01:33N 39°35' W 010°12'1515.2
2015-Aug-21 00:33N 39°50' W 010°12'1515.1
2015-Aug-20 23:34N 40°05' W 010°12'1615.4
2015-Aug-20 22:33N 40°20' W 010°12'1915.2
2015-Aug-20 21:19N 40°39' W 010°12'7315.2
2015-Aug-20 16:30N 41°52' W 010°12'1415.1
2015-Aug-20 15:33N 42°06' W 010°12'1515.2
2015-Aug-20 14:33N 42°22' W 010°12'1515.2
2015-Aug-20 13:33N 42°37' W 010°12'1615.9
2015-Aug-20 12:33N 42°53' W 010°12'3114.8
2015-Aug-20 10:26N 43°24' W 010°07'3214.8
2015-Aug-20 08:15N 43°52' W 009°46'56713.8
2015-Aug-18 15:12N 50°33' E 000°03'1015.1
2015-Aug-18 14:33N 50°36' E 000°18'1414.2
2015-Aug-18 13:34N 50°41' E 000°39'1413.5
2015-Aug-18 12:32N 50°49' E 000°57'  
Track history (hours):
 
Tides and Currents Weather Stations Pressure Air Temp Water Temp Dewpoint Dewpoint Depression Visibility Wind Speed Wind Dir Waves Ship Positions

Trans Exeter

Last reported at 2015-Aug-28 12:15 UTC. Time now 2015-Aug-29 00:25 UTC.
Position N 41°18' E 002°11'.

Length 118 m; draft 7.4 m.

Type: Ship (hazmat cat C). MMSI: 248908000.

Date/timePositionNaut miles runAvg speedWind from/ knotsBaromVisibWave heightAir tempDewpointWater temp
2015-Aug-28 12:15N 41°18' E 002°11'3 3.9
2015-Aug-28 11:24N 41°15' E 002°11'1113.5
2015-Aug-28 10:33N 41°07' E 002°01'1514.7
2015-Aug-28 09:33N 41°00' E 001°43'1612.5
2015-Aug-28 08:17N 40°58' E 001°22'10 0.5
2015-Aug-27 12:20N 41°05' E 001°13'7 8.3
2015-Aug-27 11:33N 40°59' E 001°11'1514.5
2015-Aug-27 10:33N 40°45' E 001°08'1414.4
2015-Aug-27 09:33N 40°31' E 001°05'1514.5
2015-Aug-27 08:33N 40°16' E 001°01'1414.5
2015-Aug-27 07:33N 40°02' E 000°58'1514.7
2015-Aug-27 06:32N 39°47' E 000°53'11914.5
2015-Aug-26 22:20N 37°59' W 000°09'1214.6
2015-Aug-26 21:32N 37°49' W 000°17'1414.2
2015-Aug-26 20:33N 37°38' W 000°27'1413.7
2015-Aug-26 19:31N 37°27' W 000°39'1313.6
2015-Aug-26 18:33N 37°19' W 000°52'  
2015-Aug-21 19:32N 36°47' W 007°47'1715.4
2015-Aug-21 18:27N 36°42' W 008°07'1515.0
2015-Aug-21 17:26N 36°37' W 008°25'7111.7
2015-Aug-21 11:21N 37°08' W 009°44'1215.1
2015-Aug-21 10:33N 37°20' W 009°48'1515.3
2015-Aug-21 09:33N 37°35' W 009°52'1515.0
2015-Aug-21 08:33N 37°49' W 009°57'1515.2
2015-Aug-21 07:34N 38°04' W 010°01'1515.0
2015-Aug-21 06:33N 38°19' W 010°06'1615.9
2015-Aug-21 05:33N 38°34' W 010°10'1615.5
2015-Aug-21 04:33N 38°50' W 010°11'1514.6
2015-Aug-21 03:33N 39°04' W 010°12'1514.9
2015-Aug-21 02:33N 39°19' W 010°12'1515.2
2015-Aug-21 01:33N 39°35' W 010°12'1515.2
2015-Aug-21 00:33N 39°50' W 010°12'1515.1
2015-Aug-20 23:34N 40°05' W 010°12'1615.4
2015-Aug-20 22:33N 40°20' W 010°12'1915.2
2015-Aug-20 21:19N 40°39' W 010°12'7315.2
2015-Aug-20 16:30N 41°52' W 010°12'1415.1
2015-Aug-20 15:33N 42°06' W 010°12'1515.2
2015-Aug-20 14:33N 42°22' W 010°12'1515.2
2015-Aug-20 13:33N 42°37' W 010°12'1615.9
2015-Aug-20 12:33N 42°53' W 010°12'3114.8
2015-Aug-20 10:26N 43°24' W 010°07'3214.8
2015-Aug-20 08:15N 43°52' W 009°46'56713.8
2015-Aug-18 15:12N 50°33' E 000°03'1015.1
2015-Aug-18 14:33N 50°36' E 000°18'1414.2
2015-Aug-18 13:34N 50°41' E 000°39'1413.5
2015-Aug-18 12:32N 50°49' E 000°57'  

Dump ship's entire track history